createdAt,value
2019-05-10T00:00:03.150Z,14.61
2019-05-10T00:01:03.157Z,14.60
2019-05-10T00:02:03.133Z,14.60
2019-05-10T00:03:03.173Z,14.57
2019-05-10T00:04:03.114Z,14.60
2019-05-10T00:05:03.095Z,14.45
2019-05-10T00:06:03.081Z,14.54
2019-05-10T00:07:03.130Z,14.60
2019-05-10T00:08:03.064Z,14.54
2019-05-10T00:09:03.047Z,14.57
2019-05-10T00:10:03.033Z,14.59
2019-05-10T00:11:03.020Z,14.60
2019-05-10T00:12:03.084Z,14.59
2019-05-10T00:13:03.019Z,14.57
2019-05-10T00:14:03.013Z,14.66
2019-05-10T00:15:02.979Z,14.75
2019-05-10T00:16:02.971Z,14.67
2019-05-10T00:17:02.959Z,14.60
2019-05-10T00:18:02.945Z,14.67
2019-05-10T00:19:02.944Z,14.72
2019-05-10T00:20:02.927Z,14.64
2019-05-10T00:21:02.914Z,14.66
2019-05-10T00:22:02.901Z,14.57
2019-05-10T00:23:02.893Z,14.61
2019-05-10T00:24:02.899Z,14.60
2019-05-10T00:25:04.959Z,14.61
2019-05-10T00:26:02.857Z,14.64
2019-05-10T00:27:02.852Z,14.64
2019-05-10T00:28:02.836Z,14.59
2019-05-10T00:29:02.866Z,14.57
2019-05-10T00:30:02.820Z,14.66
2019-05-10T00:31:02.808Z,14.60
2019-05-10T00:32:02.793Z,14.56
2019-05-10T00:33:02.862Z,14.59
2019-05-10T00:34:02.795Z,14.63
2019-05-10T00:35:02.763Z,14.52
2019-05-10T00:36:02.753Z,14.60
2019-05-10T00:37:02.744Z,14.66
2019-05-10T00:38:02.728Z,14.69
2019-05-10T00:39:02.746Z,14.63
2019-05-10T00:40:02.711Z,14.63
2019-05-10T00:41:02.706Z,14.61
2019-05-10T00:42:02.692Z,14.71
2019-05-10T00:43:02.678Z,14.67
2019-05-10T00:44:02.676Z,14.67
2019-05-10T00:45:02.681Z,14.75
2019-05-10T00:46:02.659Z,14.72
2019-05-10T00:47:02.660Z,14.79
2019-05-10T00:48:02.622Z,14.78
2019-05-10T00:49:02.611Z,14.71
2019-05-10T00:50:02.614Z,14.72
2019-05-10T00:51:02.596Z,14.74
2019-05-10T00:52:02.579Z,14.74
2019-05-10T00:53:02.569Z,14.72
2019-05-10T00:54:02.558Z,14.74
2019-05-10T00:55:16.702Z,14.74
2019-05-10T00:56:03.535Z,14.79
2019-05-10T00:57:02.528Z,14.74
2019-05-10T00:58:02.517Z,14.74
2019-05-10T00:59:02.505Z,14.80
2019-05-10T01:00:02.508Z,14.72
2019-05-10T01:01:02.532Z,14.80
2019-05-10T01:02:02.486Z,14.74
2019-05-10T01:03:02.463Z,14.79
2019-05-10T01:04:02.480Z,14.74
2019-05-10T01:05:02.458Z,14.75
2019-05-10T01:06:02.472Z,14.80
2019-05-10T01:07:02.421Z,14.75
2019-05-10T01:08:02.407Z,14.78
2019-05-10T01:09:02.399Z,14.72
2019-05-10T01:10:02.406Z,14.75
2019-05-10T01:11:02.372Z,14.71
2019-05-10T01:12:02.361Z,14.79
2019-05-10T01:13:02.352Z,14.75
2019-05-10T01:14:02.343Z,14.82
2019-05-10T01:15:02.342Z,14.78
2019-05-10T01:16:02.315Z,14.75
2019-05-10T01:17:02.308Z,14.78
2019-05-10T01:18:02.359Z,14.80
2019-05-10T01:19:02.290Z,14.74
2019-05-10T01:20:02.297Z,14.75
2019-05-10T01:21:02.263Z,14.75
2019-05-10T01:22:02.252Z,14.75
2019-05-10T01:23:02.239Z,14.85
2019-05-10T01:24:02.261Z,14.80
2019-05-10T01:25:02.228Z,14.79
2019-05-10T01:26:02.214Z,14.78
2019-05-10T01:27:02.196Z,14.87
2019-05-10T01:28:02.191Z,14.82
2019-05-10T01:29:02.175Z,14.91
2019-05-10T01:30:02.239Z,14.85
2019-05-10T01:31:02.158Z,14.87
2019-05-10T01:32:02.179Z,14.90
2019-05-10T01:33:02.132Z,14.87
2019-05-10T01:34:02.121Z,14.86
2019-05-10T01:35:02.125Z,14.83
2019-05-10T01:36:02.108Z,14.85
2019-05-10T01:37:02.089Z,14.94
2019-05-10T01:38:02.077Z,14.83
2019-05-10T01:39:02.069Z,14.85
2019-05-10T01:40:02.090Z,14.97
2019-05-10T01:41:02.044Z,14.94
2019-05-10T01:42:02.037Z,14.83
2019-05-10T01:43:02.023Z,14.90
2019-05-10T01:44:02.022Z,14.75
2019-05-10T01:45:02.053Z,14.85
2019-05-10T01:46:01.994Z,14.79
2019-05-10T01:47:01.982Z,14.86
2019-05-10T01:48:01.970Z,14.83
2019-05-10T01:49:01.957Z,14.83
2019-05-10T01:50:01.946Z,14.90
2019-05-10T01:51:02.194Z,14.85
2019-05-10T01:52:01.931Z,14.79
2019-05-10T01:53:01.918Z,14.85
2019-05-10T01:54:01.905Z,14.85
2019-05-10T01:55:01.899Z,14.90
2019-05-10T01:56:01.919Z,14.82
2019-05-10T01:57:01.916Z,14.93
2019-05-10T01:58:01.873Z,14.82
2019-05-10T01:59:01.866Z,14.90
2019-05-10T02:00:01.851Z,14.83
2019-05-10T02:01:01.899Z,14.94
2019-05-10T02:02:01.826Z,14.86
2019-05-10T02:03:01.826Z,14.87
2019-05-10T02:04:01.806Z,14.90
2019-05-10T02:05:01.808Z,14.85
2019-05-10T02:06:01.803Z,14.85
2019-05-10T02:07:01.769Z,14.85
2019-05-10T02:08:01.772Z,14.83
2019-05-10T02:09:01.750Z,14.91
2019-05-10T02:10:01.740Z,14.80
2019-05-10T02:11:01.746Z,14.80
2019-05-10T02:12:01.730Z,14.82
2019-05-10T02:13:01.703Z,14.87
2019-05-10T02:14:01.694Z,14.80
2019-05-10T02:15:01.694Z,14.87
2019-05-10T02:16:01.683Z,14.91
2019-05-10T02:17:01.663Z,14.83
2019-05-10T02:18:01.651Z,14.80
2019-05-10T02:19:01.641Z,14.85
2019-05-10T02:20:01.632Z,14.83
2019-05-10T02:21:01.635Z,14.87
2019-05-10T02:22:01.610Z,14.75
2019-05-10T02:23:01.604Z,14.79
2019-05-10T02:24:01.595Z,14.85
2019-05-10T02:25:01.583Z,14.85
2019-05-10T02:26:09.455Z,14.82
2019-05-10T02:27:02.557Z,14.74
2019-05-10T02:28:01.541Z,14.75
2019-05-10T02:29:01.533Z,14.75
2019-05-10T02:30:01.533Z,14.74
2019-05-10T02:31:01.529Z,14.74
2019-05-10T02:32:01.502Z,14.83
2019-05-10T02:33:01.497Z,14.79
2019-05-10T02:34:01.480Z,14.72
2019-05-10T02:35:01.472Z,14.66
2019-05-10T02:36:01.474Z,14.78
2019-05-10T02:37:01.453Z,14.78
2019-05-10T02:38:01.444Z,14.64
2019-05-10T02:39:01.425Z,14.69
2019-05-10T02:40:01.432Z,14.71
2019-05-10T02:41:01.440Z,14.66
2019-05-10T02:42:01.395Z,14.64
2019-05-10T02:43:01.385Z,14.66
2019-05-10T02:44:01.391Z,14.63
2019-05-10T02:45:01.360Z,14.69
2019-05-10T02:46:01.375Z,14.64
2019-05-10T02:47:01.353Z,14.63
2019-05-10T02:48:01.334Z,14.63
2019-05-10T02:49:01.337Z,14.66
2019-05-10T02:50:01.313Z,14.57
2019-05-10T02:51:01.306Z,14.61
2019-05-10T02:52:01.307Z,14.63
2019-05-10T02:53:01.309Z,14.57
2019-05-10T02:54:01.263Z,14.61
2019-05-10T02:55:01.275Z,14.59
2019-05-10T02:56:01.263Z,14.54
2019-05-10T02:57:01.230Z,14.60
2019-05-10T02:58:01.259Z,14.54
2019-05-10T02:59:01.213Z,14.59
2019-05-10T03:00:01.221Z,14.60
2019-05-10T03:01:01.239Z,14.57
2019-05-10T03:02:01.175Z,14.44
2019-05-10T03:03:01.173Z,14.59
2019-05-10T03:04:01.158Z,14.54
2019-05-10T03:05:01.143Z,14.56
2019-05-10T03:06:01.135Z,14.44
2019-05-10T03:07:01.136Z,14.53
2019-05-10T03:08:01.121Z,14.52
2019-05-10T03:09:01.102Z,14.45
2019-05-10T03:10:01.098Z,14.54
2019-05-10T03:11:01.078Z,14.48
2019-05-10T03:12:01.080Z,14.52
2019-05-10T03:13:01.060Z,14.45
2019-05-10T03:14:01.055Z,14.52
2019-05-10T03:15:01.094Z,14.54
2019-05-10T03:16:01.025Z,14.45
2019-05-10T03:17:01.030Z,14.48
2019-05-10T03:18:01.002Z,14.60
2019-05-10T03:19:00.987Z,14.53
2019-05-10T03:20:00.980Z,14.54
2019-05-10T03:21:00.973Z,14.56
2019-05-10T03:22:00.965Z,14.60
2019-05-10T03:23:00.944Z,14.56
2019-05-10T03:24:00.934Z,14.61
2019-05-10T03:25:00.921Z,14.66
2019-05-10T03:26:00.914Z,14.64
2019-05-10T03:27:00.913Z,14.57
2019-05-10T03:28:00.893Z,14.63
2019-05-10T03:29:00.893Z,14.63
2019-05-10T03:30:00.870Z,14.56
2019-05-10T03:31:00.862Z,14.61
2019-05-10T03:32:00.878Z,14.56
2019-05-10T03:33:00.841Z,14.59
2019-05-10T03:34:00.875Z,14.63
2019-05-10T03:35:00.839Z,14.60
2019-05-10T03:36:00.804Z,14.61
2019-05-10T03:37:00.830Z,14.60
2019-05-10T03:38:00.796Z,14.59
2019-05-10T03:39:00.772Z,14.54
2019-05-10T03:40:00.766Z,14.60
2019-05-10T03:41:00.752Z,14.61
2019-05-10T03:42:00.755Z,14.57
2019-05-10T03:43:00.736Z,14.60
2019-05-10T03:44:00.743Z,14.57
2019-05-10T03:45:00.822Z,14.46
2019-05-10T03:46:00.703Z,14.46
2019-05-10T03:47:00.714Z,14.53
2019-05-10T03:48:00.687Z,14.44
2019-05-10T03:49:00.671Z,14.45
2019-05-10T03:50:00.655Z,14.44
2019-05-10T03:51:00.644Z,14.54
2019-05-10T03:52:00.655Z,14.48
2019-05-10T03:53:00.622Z,14.57
2019-05-10T03:54:00.613Z,14.46
2019-05-10T03:55:00.600Z,14.42
2019-05-10T03:56:00.614Z,14.42
2019-05-10T03:57:13.387Z,14.42
2019-05-10T03:58:01.573Z,14.42
2019-05-10T03:59:00.563Z,14.44
2019-05-10T04:00:00.574Z,14.39
2019-05-10T04:01:00.555Z,14.44
2019-05-10T04:02:00.548Z,14.35
2019-05-10T04:03:00.526Z,14.35
2019-05-10T04:04:00.512Z,14.31
2019-05-10T04:05:00.498Z,14.35
2019-05-10T04:06:00.496Z,14.30
2019-05-10T04:07:00.492Z,14.38
2019-05-10T04:08:00.481Z,14.38
2019-05-10T04:09:00.459Z,14.36
2019-05-10T04:10:00.446Z,14.24
2019-05-10T04:11:00.436Z,14.31
2019-05-10T04:12:00.428Z,14.31
2019-05-10T04:13:00.425Z,14.24
2019-05-10T04:14:00.399Z,14.21
2019-05-10T04:15:00.393Z,14.26
2019-05-10T04:16:00.377Z,14.26
2019-05-10T04:17:00.366Z,14.23
2019-05-10T04:18:00.364Z,14.20
2019-05-10T04:19:00.347Z,14.20
2019-05-10T04:20:00.333Z,14.27
2019-05-10T04:21:00.329Z,14.21
2019-05-10T04:22:00.333Z,14.23
2019-05-10T04:23:00.312Z,14.20
2019-05-10T04:24:00.292Z,14.20
2019-05-10T04:25:00.280Z,14.17
2019-05-10T04:26:00.277Z,14.21
2019-05-10T04:27:00.280Z,14.20
2019-05-10T04:28:00.264Z,14.26
2019-05-10T04:29:00.242Z,14.20
2019-05-10T04:30:00.227Z,14.16
2019-05-10T04:31:00.227Z,14.16
2019-05-10T04:32:00.210Z,14.17
2019-05-10T04:33:00.247Z,14.16
2019-05-10T04:34:00.196Z,14.16
2019-05-10T04:35:00.183Z,14.23
2019-05-10T04:36:00.177Z,14.20
2019-05-10T04:37:00.177Z,14.13
2019-05-10T04:38:00.153Z,14.13
2019-05-10T04:39:00.135Z,14.19
2019-05-10T04:40:00.138Z,14.13
2019-05-10T04:41:00.137Z,14.20
2019-05-10T04:42:00.104Z,14.16
2019-05-10T04:43:00.101Z,14.17
2019-05-10T04:44:00.085Z,14.13
2019-05-10T04:45:00.096Z,14.23
2019-05-10T04:46:00.056Z,14.23
2019-05-10T04:47:00.053Z,14.19
2019-05-10T04:48:00.056Z,14.21
2019-05-10T04:49:00.023Z,14.17
2019-05-10T04:50:00.019Z,14.19
2019-05-10T04:51:00.008Z,14.21
2019-05-10T04:51:59.992Z,14.20
2019-05-10T04:52:59.998Z,14.23
2019-05-10T04:53:59.986Z,14.26
2019-05-10T04:54:59.960Z,14.26
2019-05-10T04:55:59.948Z,14.26
2019-05-10T04:57:00.276Z,14.23
2019-05-10T04:57:59.944Z,14.17
2019-05-10T04:58:59.982Z,14.23
2019-05-10T04:59:59.969Z,14.29
2019-05-10T05:00:59.958Z,14.24
2019-05-10T05:01:59.891Z,14.24
2019-05-10T05:02:59.950Z,14.29
2019-05-10T05:03:59.868Z,14.24
2019-05-10T05:04:59.853Z,14.30
2019-05-10T05:05:59.845Z,14.26
2019-05-10T05:06:59.842Z,14.26
2019-05-10T05:07:59.834Z,14.31
2019-05-10T05:08:59.812Z,14.36
2019-05-10T05:09:59.804Z,14.31
2019-05-10T05:10:59.788Z,14.31
2019-05-10T05:11:59.800Z,14.41
2019-05-10T05:12:59.781Z,14.31
2019-05-10T05:14:00.012Z,14.31
2019-05-10T05:14:59.755Z,14.31
2019-05-10T05:15:59.749Z,14.35
2019-05-10T05:16:59.732Z,14.31
2019-05-10T05:17:59.726Z,14.30
2019-05-10T05:18:59.722Z,14.31
2019-05-10T05:19:59.702Z,14.34
2019-05-10T05:20:59.694Z,14.45
2019-05-10T05:21:59.692Z,14.34
2019-05-10T05:22:59.813Z,14.30
2019-05-10T05:23:59.691Z,14.34
2019-05-10T05:25:01.064Z,14.31
2019-05-10T05:25:59.636Z,14.29
2019-05-10T05:26:59.636Z,14.31
2019-05-10T05:28:07.804Z,14.38
2019-05-10T05:29:00.629Z,14.44
2019-05-10T05:29:59.587Z,14.42
2019-05-10T05:30:59.571Z,14.27
2019-05-10T05:32:01.263Z,14.38
2019-05-10T05:32:59.559Z,14.44
2019-05-10T05:34:04.800Z,14.48
2019-05-10T05:35:00.527Z,14.44
2019-05-10T05:36:02.134Z,14.44
2019-05-10T05:36:59.525Z,14.36
2019-05-10T05:37:59.513Z,14.36
2019-05-10T05:38:59.502Z,14.41
2019-05-10T05:39:59.472Z,14.42
2019-05-10T05:40:59.465Z,14.44
2019-05-10T05:41:59.453Z,14.46
2019-05-10T05:43:02.756Z,14.54
2019-05-10T05:44:00.439Z,14.57
2019-05-10T05:44:59.443Z,14.49
2019-05-10T05:45:59.411Z,14.61
2019-05-10T05:46:59.409Z,14.60
2019-05-10T05:47:59.389Z,14.60
2019-05-10T05:48:59.391Z,14.67
2019-05-10T05:49:59.368Z,14.64
2019-05-10T05:50:59.362Z,14.63
2019-05-10T05:51:59.362Z,14.83
2019-05-10T05:52:59.352Z,14.80
2019-05-10T05:53:59.365Z,14.93
2019-05-10T05:54:59.381Z,15.07
2019-05-10T05:56:03.732Z,15.19
2019-05-10T05:57:00.314Z,15.25
2019-05-10T05:58:04.534Z,15.37
2019-05-10T05:59:00.372Z,15.48
2019-05-10T06:00:03.881Z,15.60
2019-05-10T06:01:00.259Z,15.66
2019-05-10T06:02:00.594Z,15.68
2019-05-10T06:03:00.276Z,15.73
2019-05-10T06:04:00.198Z,15.66
2019-05-10T06:05:00.226Z,15.59
2019-05-10T06:05:59.199Z,15.62
2019-05-10T06:07:00.453Z,15.51
2019-05-10T06:07:59.214Z,15.59
2019-05-10T06:09:00.089Z,15.64
2019-05-10T06:09:59.157Z,15.55
2019-05-10T06:11:00.096Z,15.46
2019-05-10T06:11:59.130Z,15.58
2019-05-10T06:12:59.118Z,15.67
2019-05-10T06:14:03.616Z,15.56
2019-05-10T06:15:00.098Z,15.51
2019-05-10T06:16:00.342Z,15.59
2019-05-10T06:16:59.093Z,15.64
2019-05-10T06:18:03.601Z,15.56
2019-05-10T06:19:00.091Z,15.52
2019-05-10T06:20:00.816Z,15.46
2019-05-10T06:21:00.041Z,15.46
2019-05-10T06:22:04.477Z,15.46
2019-05-10T06:23:06.617Z,15.46
2019-05-10T06:24:00.050Z,15.41
2019-05-10T06:24:58.994Z,15.46
2019-05-10T06:25:58.983Z,15.40
2019-05-10T06:27:03.493Z,15.41
2019-05-10T06:27:59.983Z,15.33
2019-05-10T06:29:03.723Z,15.38
2019-05-10T06:29:59.942Z,15.40
2019-05-10T06:30:58.924Z,15.41
2019-05-10T06:31:59.128Z,15.33
2019-05-10T06:33:00.820Z,15.41
2019-05-10T06:33:58.920Z,15.37
2019-05-10T06:34:58.882Z,15.40
2019-05-10T06:35:58.871Z,15.35
2019-05-10T06:36:58.858Z,15.40
2019-05-10T06:37:58.859Z,15.44
2019-05-10T06:38:58.841Z,15.46
2019-05-10T06:39:58.846Z,15.43
2019-05-10T06:40:58.816Z,15.41
2019-05-10T06:41:58.808Z,15.43
2019-05-10T06:42:58.793Z,15.49
2019-05-10T06:43:58.789Z,15.46
2019-05-10T06:45:04.977Z,15.52
2019-05-10T06:45:59.834Z,15.52
2019-05-10T06:47:02.055Z,15.58
2019-05-10T06:47:59.742Z,15.60
2019-05-10T06:49:07.263Z,15.55
2019-05-10T06:49:59.733Z,15.60
2019-05-10T06:51:03.009Z,15.58
2019-05-10T06:51:59.701Z,15.60
2019-05-10T06:53:00.718Z,15.62
2019-05-10T06:53:59.674Z,15.66
2019-05-10T06:54:58.923Z,15.74
2019-05-10T06:55:58.682Z,15.81
2019-05-10T06:56:58.643Z,15.84
2019-05-10T06:58:00.692Z,15.78
2019-05-10T06:59:12.338Z,15.85
2019-05-10T07:00:05.966Z,15.85
2019-05-10T07:00:59.605Z,15.78
2019-05-10T07:01:58.590Z,15.91
2019-05-10T07:02:58.589Z,15.93
2019-05-10T07:03:58.570Z,15.95
2019-05-10T07:04:58.597Z,16.23
2019-05-10T07:05:58.550Z,16.22
2019-05-10T07:06:58.568Z,16.17
2019-05-10T07:08:13.833Z,16.08
2019-05-10T07:08:59.596Z,16.14
2019-05-10T07:10:08.334Z,16.14
2019-05-10T07:10:59.490Z,16.11
2019-05-10T07:11:58.484Z,16.16
2019-05-10T07:13:03.596Z,16.08
2019-05-10T07:13:59.470Z,16.08
2019-05-10T07:15:03.478Z,16.08
2019-05-10T07:15:59.451Z,16.10
2019-05-10T07:17:02.820Z,16.08
2019-05-10T07:17:59.424Z,16.14
2019-05-10T07:19:00.487Z,16.07
2019-05-10T07:19:58.417Z,16.06
2019-05-10T07:21:00.950Z,16.13
2019-05-10T07:21:59.372Z,16.10
2019-05-10T07:23:00.033Z,16.17
2019-05-10T07:23:59.365Z,16.11
2019-05-10T07:25:04.535Z,16.18
2019-05-10T07:25:59.336Z,16.22
2019-05-10T07:27:02.102Z,16.17
2019-05-10T07:27:58.310Z,16.11
2019-05-10T07:28:59.410Z,16.10
2019-05-10T07:29:58.297Z,16.01
2019-05-10T07:30:58.287Z,16.08
2019-05-10T07:31:58.266Z,16.11
2019-05-10T07:32:59.707Z,15.99
2019-05-10T07:33:58.248Z,15.95
2019-05-10T07:35:00.776Z,15.99
2019-05-10T07:35:58.224Z,16.01
2019-05-10T07:37:01.570Z,15.99
2019-05-10T07:37:58.233Z,15.95
2019-05-10T07:39:02.718Z,16.04
2019-05-10T07:39:59.188Z,15.98
2019-05-10T07:40:58.173Z,15.99
2019-05-10T07:42:00.264Z,15.99
2019-05-10T07:42:59.147Z,15.99
2019-05-10T07:44:00.614Z,16.04
2019-05-10T07:44:59.169Z,15.98
2019-05-10T07:46:06.171Z,16.06
2019-05-10T07:46:59.107Z,16.10
2019-05-10T07:48:02.364Z,16.16
2019-05-10T07:48:59.080Z,16.18
2019-05-10T07:49:58.110Z,16.14
2019-05-10T07:50:58.071Z,16.13
2019-05-10T07:52:02.081Z,16.22
2019-05-10T07:52:58.038Z,16.22
2019-05-10T07:54:04.806Z,16.26
2019-05-10T07:54:59.018Z,16.29
2019-05-10T07:55:59.838Z,16.30
2019-05-10T07:56:58.995Z,16.32
2019-05-10T07:57:59.202Z,16.36
2019-05-10T07:59:00.749Z,16.45
2019-05-10T08:00:03.493Z,16.62
2019-05-10T08:00:59.000Z,16.65
2019-05-10T08:01:58.010Z,16.67
2019-05-10T08:03:12.414Z,16.88
2019-05-10T08:03:59.229Z,16.99
2019-05-10T08:04:58.481Z,16.99
2019-05-10T08:06:01.787Z,17.03
2019-05-10T08:06:59.676Z,17.15
2019-05-10T08:07:58.868Z,17.25
2019-05-10T08:09:01.995Z,17.45
2019-05-10T08:09:59.424Z,17.47
2019-05-10T08:10:59.348Z,17.42
2019-05-10T08:12:03.187Z,17.46
2019-05-10T08:13:01.363Z,17.54
2019-05-10T08:14:06.115Z,17.60
2019-05-10T08:14:59.062Z,17.70
2019-05-10T08:15:59.423Z,17.84
2019-05-10T08:17:01.927Z,17.83
2019-05-10T08:17:58.768Z,17.91
2019-05-10T08:19:00.918Z,17.77
2019-05-10T08:19:57.748Z,18.02
2019-05-10T08:21:02.249Z,18.13
2019-05-10T08:22:01.806Z,18.09
2019-05-10T08:22:58.712Z,18.17
2019-05-10T08:23:59.040Z,18.11
2019-05-10T08:24:58.695Z,18.10
2019-05-10T08:25:57.734Z,18.20
2019-05-10T08:27:09.765Z,18.26
2019-05-10T08:27:58.665Z,18.23
2019-05-10T08:28:57.659Z,18.41
2019-05-10T08:30:17.808Z,18.34
2019-05-10T08:30:59.115Z,18.32
2019-05-10T08:31:57.618Z,18.53
2019-05-10T08:33:00.197Z,18.53
2019-05-10T08:33:59.248Z,18.65
2019-05-10T08:34:57.599Z,18.59
2019-05-10T08:36:00.451Z,18.60
2019-05-10T08:36:58.563Z,18.54
2019-05-10T08:37:57.557Z,18.56
2019-05-10T08:39:07.056Z,18.62
2019-05-10T08:39:58.535Z,18.68
2019-05-10T08:40:57.532Z,18.66
2019-05-10T08:42:08.834Z,18.68
2019-05-10T08:43:04.882Z,18.59
2019-05-10T08:43:58.490Z,18.54
2019-05-10T08:45:03.777Z,18.54
2019-05-10T08:45:58.491Z,18.49
2019-05-10T08:46:57.464Z,18.53
2019-05-10T08:48:00.655Z,18.44
2019-05-10T08:48:58.459Z,18.53
2019-05-10T08:50:10.537Z,18.54
2019-05-10T08:51:04.087Z,18.62
2019-05-10T08:51:58.423Z,18.65
2019-05-10T08:53:04.357Z,18.69
2019-05-10T08:53:58.527Z,18.89
2019-05-10T08:54:57.372Z,18.87
2019-05-10T08:55:58.994Z,19.02
2019-05-10T08:57:01.321Z,18.90
2019-05-10T08:57:58.336Z,18.84
2019-05-10T08:58:57.327Z,18.74
2019-05-10T09:00:06.607Z,18.79
2019-05-10T09:01:15.498Z,18.90
2019-05-10T09:01:58.299Z,19.13
2019-05-10T09:03:02.970Z,19.07
2019-05-10T09:04:00.778Z,19.01
2019-05-10T09:04:58.258Z,19.09
2019-05-10T09:05:57.247Z,19.05
2019-05-10T09:06:59.888Z,19.01
2019-05-10T09:07:57.233Z,18.97
2019-05-10T09:09:01.685Z,19.06
2019-05-10T09:09:58.226Z,18.91
2019-05-10T09:10:57.193Z,18.79
2019-05-10T09:11:57.673Z,18.76
2019-05-10T09:12:58.422Z,18.76
2019-05-10T09:13:57.837Z,18.74
2019-05-10T09:15:05.494Z,18.65
2019-05-10T09:15:58.165Z,18.62
2019-05-10T09:17:03.489Z,18.59
2019-05-10T09:18:02.849Z,18.64
2019-05-10T09:18:58.104Z,18.57
2019-05-10T09:19:57.099Z,18.59
2019-05-10T09:21:02.609Z,18.75
2019-05-10T09:21:58.086Z,18.89
2019-05-10T09:22:57.109Z,19.02
2019-05-10T09:24:01.347Z,18.97
2019-05-10T09:24:58.041Z,19.09
2019-05-10T09:26:03.744Z,19.17
2019-05-10T09:26:58.053Z,19.21
2019-05-10T09:28:02.357Z,19.21
2019-05-10T09:28:58.003Z,19.21
2019-05-10T09:29:56.988Z,19.25
2019-05-10T09:31:01.222Z,19.15
2019-05-10T09:32:01.033Z,19.09
2019-05-10T09:33:00.988Z,19.06
2019-05-10T09:33:57.946Z,19.06
2019-05-10T09:34:59.742Z,19.12
2019-05-10T09:35:59.313Z,19.02
2019-05-10T09:36:56.927Z,19.10
2019-05-10T09:37:58.525Z,18.97
2019-05-10T09:38:56.900Z,19.01
2019-05-10T09:40:05.415Z,18.97
2019-05-10T09:40:57.873Z,18.97
2019-05-10T09:41:56.877Z,18.93
2019-05-10T09:42:59.410Z,18.91
2019-05-10T09:43:57.858Z,18.84
2019-05-10T09:44:56.863Z,18.84
2019-05-10T09:45:56.860Z,18.75
2019-05-10T09:46:56.819Z,18.82
2019-05-10T09:47:56.795Z,18.72
2019-05-10T09:49:06.141Z,18.60
2019-05-10T09:49:58.956Z,18.59
2019-05-10T09:51:00.642Z,18.57
2019-05-10T09:51:57.778Z,18.49
2019-05-10T09:52:56.748Z,18.42
2019-05-10T09:53:57.914Z,18.32
2019-05-10T09:54:57.113Z,18.34
2019-05-10T09:56:02.558Z,18.28
2019-05-10T09:56:57.775Z,18.16
2019-05-10T09:57:58.313Z,18.14
2019-05-10T09:58:58.185Z,18.14
2019-05-10T09:59:57.217Z,18.13
2019-05-10T10:01:12.826Z,18.09
2019-05-10T10:01:57.646Z,18.14
2019-05-10T10:03:01.176Z,18.09
2019-05-10T10:03:58.433Z,17.99
2019-05-10T10:04:58.841Z,17.95
2019-05-10T10:06:05.152Z,17.95
2019-05-10T10:06:58.128Z,17.79
2019-05-10T10:07:57.840Z,17.81
2019-05-10T10:08:57.730Z,17.83
2019-05-10T10:09:57.120Z,17.79
2019-05-10T10:11:01.095Z,17.81
2019-05-10T10:12:01.052Z,17.81
2019-05-10T10:13:07.321Z,17.81
2019-05-10T10:14:00.015Z,17.87
2019-05-10T10:14:56.516Z,17.87
2019-05-10T10:15:58.140Z,17.83
2019-05-10T10:17:00.554Z,17.83
2019-05-10T10:17:58.298Z,17.76
2019-05-10T10:18:56.476Z,17.65
2019-05-10T10:19:57.857Z,17.63
2019-05-10T10:20:56.448Z,17.68
2019-05-10T10:21:57.608Z,17.77
2019-05-10T10:22:56.455Z,17.80
2019-05-10T10:24:00.037Z,17.74
2019-05-10T10:25:00.465Z,17.74
2019-05-10T10:25:58.006Z,17.86
2019-05-10T10:26:58.132Z,17.83
2019-05-10T10:27:57.412Z,17.87
2019-05-10T10:28:59.515Z,17.80
2019-05-10T10:29:57.354Z,17.89
2019-05-10T10:31:03.034Z,18.11
2019-05-10T10:31:58.948Z,18.10
2019-05-10T10:32:58.119Z,18.32
2019-05-10T10:33:59.499Z,18.42
2019-05-10T10:34:57.760Z,18.57
2019-05-10T10:36:04.812Z,18.71
2019-05-10T10:36:58.041Z,18.71
2019-05-10T10:37:57.541Z,18.87
2019-05-10T10:38:57.252Z,19.01
2019-05-10T10:40:00.737Z,19.12
2019-05-10T10:40:57.704Z,19.09
2019-05-10T10:41:57.109Z,19.25
2019-05-10T10:42:57.732Z,19.21
2019-05-10T10:43:58.376Z,19.20
2019-05-10T10:44:56.183Z,19.20
2019-05-10T10:45:57.459Z,19.32
2019-05-10T10:46:58.226Z,19.49
2019-05-10T10:47:57.313Z,19.52
2019-05-10T10:48:56.144Z,19.42
2019-05-10T10:49:57.884Z,19.52
2019-05-10T10:50:58.519Z,19.57
2019-05-10T10:51:57.360Z,19.40
2019-05-10T10:52:57.470Z,19.47
2019-05-10T10:53:58.107Z,19.40
2019-05-10T10:54:57.648Z,19.40
2019-05-10T10:56:02.467Z,19.42
2019-05-10T10:56:59.437Z,19.42
2019-05-10T10:57:57.661Z,19.39
2019-05-10T10:58:58.071Z,19.39
2019-05-10T10:59:57.453Z,19.40
2019-05-10T11:00:56.045Z,19.30
2019-05-10T11:02:25.376Z,19.43
2019-05-10T11:02:56.996Z,19.50
2019-05-10T11:03:55.990Z,19.65
2019-05-10T11:04:55.974Z,19.67
2019-05-10T11:05:55.971Z,19.58
2019-05-10T11:07:09.197Z,19.52
2019-05-10T11:07:56.940Z,19.45
2019-05-10T11:08:55.940Z,19.28
2019-05-10T11:10:12.266Z,19.21
2019-05-10T11:10:56.907Z,19.27
2019-05-10T11:11:55.903Z,19.16
2019-05-10T11:12:56.264Z,19.12
2019-05-10T11:14:00.433Z,19.10
2019-05-10T11:14:56.861Z,19.09
2019-05-10T11:15:58.959Z,19.09
2019-05-10T11:16:57.325Z,19.07
2019-05-10T11:17:55.845Z,19.07
2019-05-10T11:18:55.852Z,18.99
2019-05-10T11:19:55.809Z,19.01
2019-05-10T11:20:55.795Z,18.96
2019-05-10T11:21:55.788Z,18.94
2019-05-10T11:22:55.776Z,18.90
2019-05-10T11:23:55.781Z,18.93
2019-05-10T11:25:00.698Z,18.79
2019-05-10T11:25:56.832Z,18.86
2019-05-10T11:26:55.732Z,18.82
2019-05-10T11:27:58.576Z,18.76
2019-05-10T11:28:56.728Z,18.75
2019-05-10T11:29:55.728Z,18.66
2019-05-10T11:30:55.687Z,18.75
2019-05-10T11:32:12.153Z,18.66
2019-05-10T11:32:56.667Z,18.69
2019-05-10T11:33:58.429Z,18.64
2019-05-10T11:34:56.683Z,18.62
2019-05-10T11:35:57.547Z,18.59
2019-05-10T11:36:56.630Z,18.64
2019-05-10T11:37:55.617Z,18.60
2019-05-10T11:38:58.587Z,18.59
2019-05-10T11:39:55.615Z,18.57
2019-05-10T11:40:55.592Z,18.62
2019-05-10T11:42:02.035Z,18.57
2019-05-10T11:42:56.562Z,18.60
2019-05-10T11:43:57.994Z,18.59
2019-05-10T11:44:56.553Z,18.68
2019-05-10T11:45:55.526Z,18.69
2019-05-10T11:46:55.520Z,18.76
2019-05-10T11:47:59.080Z,18.97
2019-05-10T11:48:56.496Z,18.90
2019-05-10T11:49:55.492Z,18.99
2019-05-10T11:50:55.471Z,18.99
2019-05-10T11:51:58.681Z,19.10
2019-05-10T11:52:55.450Z,19.02
2019-05-10T11:53:59.658Z,19.17
2019-05-10T11:54:55.437Z,19.40
2019-05-10T11:55:55.416Z,19.55
2019-05-10T11:56:58.468Z,19.68
2019-05-10T11:58:03.295Z,19.83
2019-05-10T11:58:56.380Z,19.72
2019-05-10T11:59:55.379Z,19.60
2019-05-10T12:00:59.309Z,19.61
2019-05-10T12:01:59.400Z,19.80
2019-05-10T12:03:07.413Z,19.90
2019-05-10T12:03:56.327Z,20.04
2019-05-10T12:04:55.328Z,19.94
2019-05-10T12:06:04.296Z,19.80
2019-05-10T12:06:56.294Z,19.80
2019-05-10T12:07:55.287Z,19.67
2019-05-10T12:09:01.214Z,19.75
2019-05-10T12:10:07.532Z,19.65
2019-05-10T12:11:07.496Z,19.70
2019-05-10T12:11:57.046Z,19.62
2019-05-10T12:13:10.929Z,19.65
2019-05-10T12:13:57.560Z,19.65
2019-05-10T12:14:55.218Z,19.58
2019-05-10T12:15:55.202Z,19.60
2019-05-10T12:16:55.190Z,19.62
2019-05-10T12:17:59.603Z,19.61
2019-05-10T12:19:15.089Z,19.52
2019-05-10T12:19:56.644Z,19.47
2019-05-10T12:21:56.422Z,19.34
2019-05-10T12:22:55.125Z,19.20
2019-05-10T12:23:56.651Z,19.20
2019-05-10T12:25:18.701Z,19.12
2019-05-10T12:26:27.898Z,19.40
2019-05-10T12:27:09.332Z,19.09
2019-05-10T12:27:56.069Z,18.69
2019-05-10T12:29:02.682Z,18.47
2019-05-10T12:30:00.742Z,18.25
2019-05-10T12:30:56.036Z,18.13
2019-05-10T12:31:56.987Z,17.96
2019-05-10T12:32:57.235Z,17.91
2019-05-10T12:34:02.454Z,17.73
2019-05-10T12:34:56.714Z,17.62
2019-05-10T12:35:54.982Z,17.65
2019-05-10T12:36:57.441Z,17.65
2019-05-10T12:37:55.962Z,17.63
2019-05-10T12:38:56.264Z,17.54
2019-05-10T12:39:54.952Z,17.49
2019-05-10T12:40:54.956Z,17.40
2019-05-10T12:41:54.918Z,17.32
2019-05-10T12:42:54.911Z,17.39
2019-05-10T12:44:02.554Z,17.27
2019-05-10T12:44:56.124Z,17.21
2019-05-10T12:45:56.022Z,17.09
2019-05-10T12:46:54.885Z,17.07
2019-05-10T12:47:55.508Z,16.92
2019-05-10T12:48:54.850Z,16.81
2019-05-10T12:50:01.966Z,16.77
2019-05-10T12:50:59.491Z,16.75
2019-05-10T12:51:55.810Z,16.72
2019-05-10T12:53:03.287Z,16.77